Terminal Aerodrome Forecast
Issued by NWS Austin/San Antonio, TX

Home | Current Version | Previous Version | Text Only | Print | Product List | Glossary On
Versions: 1 2 3 4 5 6 7 8 9 10 11 12 13 14 15 16 17 18
000
FTUS44 KEWX 060534
TAFDRT
TAF
KDRT 060534Z 0606/0706 12011KT P6SM BKN250
     FM061000 11009KT P6SM OVC015
     FM061600 13012KT P6SM BKN025
     FM061800 14014G24KT P6SM SCT040
     FM070200 12011KT P6SM FEW250=

USA.gov is the U.S. government's official web portal to all federal, state and local government web resources and services.